Scottsbluff, NE

2:03 PM MST on December 21, 2014 (GMT -0700)
Scottsbluff Main Street Market | Change Station
CLOSE
Current Station
Personal Weather Station
Location: Scottsbluff, NE
Elevation: 3881 ft
Nearby Weather Stations
Active Advisory: Special Statement

Elev 3881 ft 41.86 °N, 103.67 °W | Updated 7 minutes ago

Overcast
Overcast
45.7 °F
Feels Like 40 °F
N
13.0
Wind Variable Wind from West
Gusts 20.0 mph

Today
High -- | Low -- °F
--% Chance of Precip.
Yesterday
High -- | Low -- °F
Precip. -- in
7:18 AM 4:26 PM
Waning Crescent, 0% visible
Pressure 29.51 in
Visibility 10.0 miles
Clouds Overcast 10000 ft
Windchill 40 °F
Dew Point 33 °F
Humidity 62%
Rainfall 0.00 in
Snow Depth Not available.
UV 1 out of 12
Pollen .10 out of 12
Air Quality Not available.
Flu Activity Not available.
METAR KBFF 211953Z AUTO 26012KT 10SM OVC100 07/M01 A2948 RMK AO2 WSHFT 1841 SLP992 T00721006

More Conditions Fewer Conditions

Pressure 29.51 in
Visibility 10.0 miles
Clouds Overcast 10000 ft
Windchill 40 °F
Dew Point 33 °F
Humidity 62%
Rainfall 0.00 in
Snow Depth Not available.
UV 1 out of 12
Pollen .10 out of 12
Air Quality Not available.
Flu Activity Not available.
METAR KBFF 211953Z AUTO 26012KT 10SM OVC100 07/M01 A2948 RMK AO2 WSHFT 1841 SLP992 T00721006

More Conditions Fewer Conditions

10-Day Weather Forecast

Almanac

Astronomy

Dec. 21, 2014 Rise Set
Actual Time
Civil Twilight
Nautical Twilight
Astronomical Twilight
Moon
Length of Visible Light
Length of Day
Tomorrow will be .
, % of the Moon is Illuminated

Today's Extremes

State Highs State Lows

Community

WunderPhotos

Upload Photos

1,779,478 photos uploaded!

WunderBlogs® & News

Nearby

Air Quality

  Air Quality AQ Index Pollutant
Not available.

Snow Depth

Station Depth Elevation

Earthquake Activity

City Distance Mag. Time & Date
Minimum magnitude displayed is 2.5.

Coastal Water Temperatures

Place Temperature

Nearby Weather Stations